createdAt,value
2022-09-27T00:02:47.762Z,13.95
2022-09-27T00:07:55.733Z,17.73
2022-09-27T00:13:01.702Z,14.63
2022-09-27T00:18:07.721Z,14.65
2022-09-27T00:23:15.227Z,18.20
2022-09-27T00:28:21.249Z,16.90
2022-09-27T00:33:27.533Z,15.50
2022-09-27T00:38:35.174Z,17.27
2022-09-27T00:43:49.560Z,17.58
2022-09-27T00:49:10.191Z,15.32
2022-09-27T00:54:21.468Z,17.20
2022-09-27T00:59:31.957Z,16.40
2022-09-27T01:04:40.289Z,16.40
2022-09-27T01:09:48.515Z,12.83
2022-09-27T01:15:15.345Z,14.00
2022-09-27T01:20:56.858Z,14.43
2022-09-27T01:26:18.538Z,14.23
2022-09-27T01:31:33.409Z,14.18
2022-09-27T01:36:50.976Z,13.13
2022-09-27T01:42:05.788Z,14.88
2022-09-27T01:47:23.998Z,13.88
2022-09-27T01:52:48.035Z,14.50
2022-09-27T01:58:08.315Z,11.55
2022-09-27T02:03:20.350Z,10.55
2022-09-27T02:08:52.764Z,14.13
2022-09-27T02:14:22.827Z,12.15
2022-09-27T02:19:49.358Z,7.93
2022-09-27T02:25:06.400Z,9.02
2022-09-27T02:30:16.362Z,11.23
2022-09-27T02:35:32.851Z,10.68
2022-09-27T02:40:46.328Z,11.88
2022-09-27T02:46:13.038Z,11.18
2022-09-27T02:51:44.088Z,10.45
2022-09-27T02:57:04.006Z,11.55
2022-09-27T03:02:33.901Z,9.73
2022-09-27T03:08:01.472Z,10.27
2022-09-27T03:13:08.220Z,13.75
2022-09-27T03:18:14.972Z,13.65
2022-09-27T03:23:22.907Z,13.35
2022-09-27T03:28:29.987Z,19.05
2022-09-27T03:33:36.748Z,20.55
2022-09-27T03:38:49.176Z,18.52
2022-09-27T03:43:58.208Z,20.88
2022-09-27T03:49:04.422Z,21.30
2022-09-27T03:54:12.076Z,20.52
2022-09-27T03:59:18.079Z,20.08
2022-09-27T04:04:59.849Z,21.45
2022-09-27T04:10:09.046Z,18.27
2022-09-27T04:15:17.044Z,19.38
2022-09-27T04:20:43.209Z,19.40
2022-09-27T04:25:53.743Z,18.98
2022-09-27T04:31:17.452Z,20.58
2022-09-27T04:36:31.092Z,19.08
2022-09-27T04:41:59.999Z,23.33
2022-09-27T04:52:17.396Z,20.58
2022-09-27T04:57:24.902Z,19.10
2022-09-27T05:02:31.654Z,20.65
2022-09-27T05:07:56.595Z,19.70
2022-09-27T05:13:14.268Z,27.50
2022-09-27T05:18:20.403Z,23.55
2022-09-27T05:24:10.076Z,27.65
2022-09-27T05:29:18.023Z,20.67
2022-09-27T05:34:35.310Z,19.10
2022-09-27T05:39:41.650Z,20.75
2022-09-27T05:44:49.595Z,19.63
2022-09-27T05:49:56.098Z,22.17
2022-09-27T05:55:01.999Z,23.80
2022-09-27T06:00:13.163Z,21.83
2022-09-27T06:05:20.054Z,24.25
2022-09-27T06:11:05.142Z,27.75
2022-09-27T06:16:14.131Z,22.85
2022-09-27T06:21:23.454Z,21.80
2022-09-27T06:26:34.926Z,20.92
2022-09-27T06:31:59.699Z,18.25
2022-09-27T06:37:28.278Z,19.58
2022-09-27T06:42:34.497Z,21.80
2022-09-27T06:47:50.499Z,18.23
2022-09-27T06:53:05.161Z,19.35
2022-09-27T06:58:31.299Z,21.77
2022-09-27T07:03:59.066Z,20.98
2022-09-27T07:09:27.689Z,17.30
2022-09-27T07:14:35.390Z,18.90
2022-09-27T07:19:44.434Z,18.83
2022-09-27T07:24:51.868Z,22.17
2022-09-27T07:29:59.313Z,22.92
2022-09-27T07:35:09.807Z,18.67
2022-09-27T07:40:15.871Z,16.20
2022-09-27T07:45:46.929Z,17.55
2022-09-27T07:51:20.689Z,17.98
2022-09-27T07:56:30.372Z,16.83
2022-09-27T08:01:37.781Z,17.48
2022-09-27T08:06:45.403Z,16.23
2022-09-27T08:11:51.927Z,23.00
2022-09-27T08:16:59.134Z,20.88
2022-09-27T08:22:10.049Z,20.33
2022-09-27T08:27:37.651Z,20.50
2022-09-27T08:32:58.128Z,26.10
2022-09-27T08:38:07.116Z,28.40
2022-09-27T08:43:24.552Z,24.90
2022-09-27T08:48:31.885Z,28.25
2022-09-27T08:53:44.360Z,27.67
2022-09-27T08:58:57.724Z,26.13
2022-09-27T09:04:12.856Z,27.38
2022-09-27T09:09:32.405Z,27.23
2022-09-27T09:15:17.856Z,20.73
2022-09-27T09:20:45.997Z,22.98
2022-09-27T09:26:03.222Z,23.85
2022-09-27T09:31:21.928Z,23.90
2022-09-27T09:36:33.970Z,22.13
2022-09-27T09:42:00.405Z,21.02
2022-09-27T09:47:18.531Z,22.50
2022-09-27T09:52:34.263Z,19.63
2022-09-27T09:57:50.371Z,20.80
2022-09-27T10:03:02.613Z,16.55
2022-09-27T10:08:20.158Z,19.67
2022-09-27T10:13:37.578Z,17.42
2022-09-27T10:18:49.899Z,19.40
2022-09-27T10:24:17.730Z,19.42
2022-09-27T10:29:47.139Z,17.00
2022-09-27T10:35:23.564Z,16.95
2022-09-27T10:40:34.081Z,15.40
2022-09-27T10:45:46.083Z,13.60
2022-09-27T10:51:03.707Z,12.77
2022-09-27T10:56:28.875Z,12.60
2022-09-27T11:01:48.619Z,12.77
2022-09-27T11:07:24.454Z,13.32
2022-09-27T11:12:42.302Z,13.48
2022-09-27T11:18:03.285Z,12.07
2022-09-27T11:23:28.502Z,13.02
2022-09-27T11:28:49.935Z,11.43
2022-09-27T11:34:47.844Z,13.43
2022-09-27T11:40:08.113Z,13.87
2022-09-27T11:45:50.473Z,15.57
2022-09-27T11:51:24.896Z,14.13
2022-09-27T11:56:43.698Z,14.82
2022-09-27T12:01:57.645Z,14.82
2022-09-27T12:07:13.002Z,13.55
2022-09-27T12:12:25.589Z,14.02
2022-09-27T12:17:37.767Z,13.80
2022-09-27T12:23:00.047Z,15.60
2022-09-27T12:28:35.050Z,14.32
2022-09-27T12:33:49.132Z,14.70
2022-09-27T12:39:06.000Z,15.02
2022-09-27T12:49:42.911Z,13.82
2022-09-27T12:55:32.894Z,15.15
2022-09-27T13:00:47.553Z,14.23
2022-09-27T13:06:32.554Z,15.07
2022-09-27T13:11:54.225Z,12.98
2022-09-27T13:17:00.434Z,15.07
2022-09-27T13:22:09.343Z,13.68
2022-09-27T13:27:45.174Z,11.48
2022-09-27T13:33:38.939Z,10.70
2022-09-27T13:39:06.256Z,12.63
2022-09-27T13:44:33.604Z,9.95
2022-09-27T13:49:42.240Z,10.60
2022-09-27T13:54:59.247Z,9.75
2022-09-27T14:00:18.626Z,10.30
2022-09-27T14:05:42.256Z,12.18
2022-09-27T14:10:48.249Z,12.88
2022-09-27T14:15:58.132Z,12.25
2022-09-27T14:21:29.470Z,11.15
2022-09-27T14:26:49.339Z,10.27
2022-09-27T14:32:09.615Z,9.15
2022-09-27T14:37:27.653Z,11.90
2022-09-27T14:42:44.897Z,10.88
2022-09-27T14:47:54.264Z,11.35
2022-09-27T14:53:02.782Z,14.43
2022-09-27T14:58:35.986Z,8.85
2022-09-27T15:03:46.769Z,8.75
2022-09-27T15:08:55.359Z,10.27
2022-09-27T15:14:03.572Z,14.38
2022-09-27T15:19:19.176Z,9.90
2022-09-27T15:24:45.242Z,9.00
2022-09-27T15:29:53.665Z,9.93
2022-09-27T15:35:09.643Z,9.50
2022-09-27T15:41:07.069Z,7.72
2022-09-27T15:46:36.685Z,9.98
2022-09-27T15:51:45.924Z,6.60
2022-09-27T15:56:55.513Z,9.63
2022-09-27T16:02:08.116Z,9.38
2022-09-27T16:07:16.546Z,8.43
2022-09-27T16:12:25.538Z,9.40
2022-09-27T16:17:31.907Z,11.93
2022-09-27T16:22:39.833Z,10.63
2022-09-27T16:27:46.232Z,11.43
2022-09-27T16:32:52.713Z,12.10
2022-09-27T16:38:00.516Z,13.23
2022-09-27T16:43:07.704Z,10.00
2022-09-27T16:48:14.347Z,11.07
2022-09-27T16:53:22.175Z,10.48
2022-09-27T16:58:31.312Z,12.52
2022-09-27T17:03:37.518Z,9.70
2022-09-27T17:08:45.149Z,10.43
2022-09-27T17:13:56.350Z,9.48
2022-09-27T17:19:03.915Z,9.60
2022-09-27T17:24:12.380Z,9.75
2022-09-27T17:29:19.163Z,9.73
2022-09-27T17:34:26.063Z,11.73
2022-09-27T17:39:34.024Z,10.43
2022-09-27T17:44:40.696Z,9.70
2022-09-27T17:50:04.577Z,10.73
2022-09-27T17:55:12.565Z,13.40
2022-09-27T18:00:21.863Z,11.10
2022-09-27T18:05:29.648Z,14.68
2022-09-27T18:10:38.159Z,15.38
2022-09-27T18:15:44.273Z,15.38
2022-09-27T18:20:53.498Z,16.13
2022-09-27T18:26:03.418Z,15.43
2022-09-27T18:36:37.789Z,12.98
2022-09-27T18:41:45.682Z,15.35
2022-09-27T18:46:54.227Z,10.70
2022-09-27T18:52:03.197Z,12.20
2022-09-27T18:57:11.058Z,10.77
2022-09-27T19:02:17.716Z,12.45
2022-09-27T19:08:11.651Z,10.82
2022-09-27T19:13:17.380Z,9.35
2022-09-27T19:18:24.051Z,8.03
2022-09-27T19:23:31.587Z,12.73
2022-09-27T19:28:41.754Z,12.52
2022-09-27T19:33:48.595Z,14.40
2022-09-27T19:38:59.161Z,14.27
2022-09-27T19:44:07.042Z,10.82
2022-09-27T19:49:13.122Z,9.52
2022-09-27T19:54:20.806Z,11.00
2022-09-27T19:59:30.160Z,12.48
2022-09-27T20:04:36.306Z,10.43
2022-09-27T20:09:43.146Z,12.02
2022-09-27T20:14:50.899Z,12.93
2022-09-27T20:19:57.228Z,13.32
2022-09-27T20:25:03.417Z,12.60
2022-09-27T20:30:15.630Z,9.50
2022-09-27T20:35:22.574Z,11.30
2022-09-27T20:40:28.600Z,9.68
2022-09-27T20:45:36.083Z,9.88
2022-09-27T20:50:43.212Z,13.30
2022-09-27T20:55:49.525Z,11.02
2022-09-27T21:00:57.250Z,10.30
2022-09-27T21:06:04.868Z,11.90
2022-09-27T21:11:20.199Z,13.25
2022-09-27T21:21:55.710Z,13.25
2022-09-27T21:27:10.572Z,12.63
2022-09-27T21:32:20.880Z,14.98
2022-09-27T21:37:27.001Z,15.70
2022-09-27T21:42:33.024Z,15.88
2022-09-27T21:47:40.415Z,17.35
2022-09-27T21:52:46.337Z,17.08
2022-09-27T21:57:52.449Z,15.80
2022-09-27T22:03:00.910Z,15.45
2022-09-27T22:08:06.943Z,18.65
2022-09-27T22:13:13.649Z,17.48
2022-09-27T22:18:21.789Z,14.73
2022-09-27T22:23:27.815Z,12.80
2022-09-27T22:28:33.754Z,14.23
2022-09-27T22:33:41.197Z,15.25
2022-09-27T22:38:47.515Z,14.75
2022-09-27T22:43:54.882Z,16.20
2022-09-27T22:49:02.403Z,10.73
2022-09-27T22:54:08.446Z,14.68
2022-09-27T22:59:14.974Z,11.70
2022-09-27T23:04:22.435Z,10.88
2022-09-27T23:09:28.528Z,14.82
2022-09-27T23:14:34.400Z,15.13
2022-09-27T23:19:41.814Z,13.77
2022-09-27T23:24:47.684Z,10.75
2022-09-27T23:29:53.521Z,12.77
2022-09-27T23:35:00.887Z,16.58
2022-09-27T23:40:10.479Z,14.20
2022-09-27T23:45:16.643Z,13.73
2022-09-27T23:50:24.135Z,11.93
2022-09-27T23:55:29.876Z,12.82
